Time;durP1;ratioP1;P1;durP2;ratioP2;P2;SDS_P1;SDS_P2;PMS_P1;PMS_P2;Temp;Humidity;BMP_temperature;BMP_pressure;BME280_temperature;BME280_humidity;BME280_pressure;Samples;Min_cycle;Max_cycle;Signal;HPM_P1;HPM_P2
2023/10/26 00:01:12;;;;;;;1.37;0.90;;;;;;;;;;4967487;28;20181;-77
2023/10/26 00:03:38;;;;;;;1.57;1.00;;;;;;;;;;4972242;28;20202;-78
2023/10/26 00:06:03;;;;;;;2.23;1.00;;;;;;;;;;4971439;28;20181;-78
2023/10/26 00:08:28;;;;;;;1.40;1.30;;;;;;;;;;4987668;28;20178;-77
2023/10/26 00:10:53;;;;;;;2.03;1.20;;;;;;;;;;4966015;28;20189;-78
2023/10/26 00:13:18;;;;;;;1.97;1.00;;;;;;;;;;4984882;28;20268;-78
2023/10/26 00:15:44;;;;;;;1.97;1.40;;;;;;;;;;5007427;28;20173;-78
2023/10/26 00:18:09;;;;;;;0.90;0.90;;;;;;;;;;4993003;28;20181;-77
2023/10/26 00:20:34;;;;;;;2.03;1.10;;;;;;;;;;4990001;28;20211;-78
2023/10/26 00:22:59;;;;;;;1.03;0.93;;;;;;;;;;5009880;28;20196;-78
2023/10/26 00:25:24;;;;;;;1.37;1.10;;;;;;;;;;5007172;28;20267;-77
2023/10/26 00:27:51;;;;;;;1.33;1.00;;;;;;;;;;4991802;28;20181;-77
2023/10/26 00:30:16;;;;;;;0.80;0.80;;;;;;;;;;4991544;28;20177;-77
2023/10/26 00:32:41;;;;;;;0.90;0.90;;;;;;;;;;4990308;28;20180;-77
2023/10/26 00:35:06;;;;;;;1.10;0.97;;;;;;;;;;5004306;28;20177;-77
2023/10/26 00:37:32;;;;;;;1.57;0.87;;;;;;;;;;4987948;28;20185;-77
2023/10/26 00:39:57;;;;;;;1.37;1.00;;;;;;;;;;5004597;28;20208;-77
2023/10/26 00:42:22;;;;;;;1.03;0.93;;;;;;;;;;4989980;28;20262;-78
2023/10/26 00:44:49;;;;;;;2.00;0.97;;;;;;;;;;4987984;28;20182;-77
2023/10/26 00:47:14;;;;;;;1.53;0.90;;;;;;;;;;4989547;28;20180;-77
2023/10/26 00:49:40;;;;;;;3.03;1.37;;;;;;;;;;4999961;28;20174;-77
2023/10/26 00:52:06;;;;;;;1.50;1.00;;;;;;;;;;5001365;28;20189;-77
2023/10/26 00:54:32;;;;;;;1.47;1.10;;;;;;;;;;4992837;28;20179;-77
2023/10/26 00:56:57;;;;;;;1.13;1.03;;;;;;;;;;5007256;28;20189;-77
2023/10/26 00:59:24;;;;;;;1.93;0.90;;;;;;;;;;4990650;28;20176;-77
2023/10/26 01:01:50;;;;;;;1.20;1.00;;;;;;;;;;4991689;28;20239;-78
2023/10/26 01:04:15;;;;;;;1.07;1.00;;;;;;;;;;5008207;28;20184;-77
2023/10/26 01:06:41;;;;;;;0.80;0.80;;;;;;;;;;4986612;28;20180;-77
2023/10/26 01:09:08;;;;;;;1.20;1.10;;;;;;;;;;4985960;28;20180;-77
2023/10/26 01:11:33;;;;;;;1.40;1.10;;;;;;;;;;4991000;28;20180;-77
2023/10/26 01:13:58;;;;;;;1.67;1.00;;;;;;;;;;4992282;28;20240;-77
2023/10/26 01:16:24;;;;;;;2.33;1.10;;;;;;;;;;5005311;28;20174;-77
2023/10/26 01:18:49;;;;;;;5.33;1.60;;;;;;;;;;4991359;28;20281;-77
2023/10/26 01:21:14;;;;;;;1.27;0.97;;;;;;;;;;4990674;28;20187;-77
2023/10/26 01:23:39;;;;;;;1.17;1.00;;;;;;;;;;4991578;28;20221;-77
2023/10/26 01:26:04;;;;;;;0.90;0.90;;;;;;;;;;4989806;28;20180;-77
2023/10/26 01:28:30;;;;;;;3.40;1.00;;;;;;;;;;4988574;28;20268;-77
2023/10/26 01:30:55;;;;;;;1.03;0.90;;;;;;;;;;4986854;28;20188;-77
2023/10/26 01:33:20;;;;;;;1.40;1.00;;;;;;;;;;5001826;28;20304;-77
2023/10/26 01:35:46;;;;;;;1.73;0.90;;;;;;;;;;4989996;28;20196;-77
2023/10/26 01:38:11;;;;;;;8.33;1.30;;;;;;;;;;4983323;28;20297;-77
2023/10/26 01:40:37;;;;;;;1.30;0.97;;;;;;;;;;5000336;28;20203;-77
2023/10/26 01:43:02;;;;;;;1.87;1.10;;;;;;;;;;4991243;28;20197;-77
2023/10/26 01:45:27;;;;;;;1.20;0.77;;;;;;;;;;5009384;28;20453;-77
2023/10/26 01:47:54;;;;;;;1.40;0.80;;;;;;;;;;4988164;28;20185;-77
2023/10/26 01:50:19;;;;;;;0.90;0.90;;;;;;;;;;5004853;28;20187;-77
2023/10/26 01:52:44;;;;;;;1.90;1.50;;;;;;;;;;4983400;28;20251;-77
2023/10/26 01:55:10;;;;;;;1.73;1.13;;;;;;;;;;4983728;28;20172;-77
2023/10/26 01:57:35;;;;;;;0.97;0.90;;;;;;;;;;4986890;28;20231;-77
2023/10/26 02:00:00;;;;;;;0.87;0.87;;;;;;;;;;5010346;28;20196;-77
2023/10/26 02:02:25;;;;;;;1.10;1.00;;;;;;;;;;5014052;28;20287;-77
2023/10/26 02:04:50;;;;;;;1.10;1.00;;;;;;;;;;5004287;28;20191;-77
2023/10/26 02:07:16;;;;;;;1.63;1.03;;;;;;;;;;5002462;28;20260;-77
2023/10/26 02:09:41;;;;;;;0.80;0.73;;;;;;;;;;4987425;28;20270;-77
2023/10/26 02:12:06;;;;;;;1.70;0.83;;;;;;;;;;5004225;28;20220;-77
2023/10/26 02:14:31;;;;;;;0.63;0.63;;;;;;;;;;4994471;28;20182;-77
2023/10/26 02:16:57;;;;;;;1.60;0.80;;;;;;;;;;4988219;28;20184;-77
2023/10/26 02:19:22;;;;;;;1.70;1.37;;;;;;;;;;4987467;28;20197;-77
2023/10/26 02:21:47;;;;;;;0.70;0.70;;;;;;;;;;4986000;28;20189;-77
2023/10/26 02:24:12;;;;;;;1.63;0.87;;;;;;;;;;5008519;28;20188;-77
2023/10/26 02:26:37;;;;;;;1.20;0.80;;;;;;;;;;5004673;28;20355;-77
2023/10/26 02:29:03;;;;;;;1.53;0.80;;;;;;;;;;5011184;28;20184;-77
2023/10/26 02:31:28;;;;;;;0.63;0.63;;;;;;;;;;4992439;28;20187;-77
2023/10/26 02:33:53;;;;;;;0.73;0.73;;;;;;;;;;4990282;28;20177;-77
2023/10/26 02:36:18;;;;;;;1.30;0.90;;;;;;;;;;4988361;28;20248;-77
2023/10/26 02:38:43;;;;;;;4.00;0.90;;;;;;;;;;4991663;28;20262;-77
2023/10/26 02:41:09;;;;;;;1.10;0.97;;;;;;;;;;5005959;28;20275;-77
2023/10/26 02:43:34;;;;;;;0.60;0.60;;;;;;;;;;4991145;28;20200;-77
2023/10/26 02:46:00;;;;;;;3.80;0.90;;;;;;;;;;4993900;28;20175;-77
2023/10/26 02:48:25;;;;;;;1.43;0.80;;;;;;;;;;4991850;28;20209;-77
2023/10/26 02:50:50;;;;;;;0.83;0.83;;;;;;;;;;5004604;28;20202;-77
2023/10/26 02:53:15;;;;;;;0.67;0.67;;;;;;;;;;5009575;28;20188;-77
2023/10/26 02:55:40;;;;;;;0.87;0.80;;;;;;;;;;5005692;28;20226;-77
2023/10/26 02:58:06;;;;;;;2.90;0.83;;;;;;;;;;4993487;28;20185;-77
2023/10/26 03:00:31;;;;;;;1.00;0.93;;;;;;;;;;4991694;28;20218;-77
2023/10/26 03:02:56;;;;;;;1.37;0.70;;;;;;;;;;4994354;28;20245;-77
2023/10/26 03:05:22;;;;;;;1.40;0.93;;;;;;;;;;5005979;28;20226;-77
2023/10/26 03:07:47;;;;;;;0.80;0.80;;;;;;;;;;4991832;28;20276;-76
2023/10/26 03:10:12;;;;;;;1.07;1.03;;;;;;;;;;5008808;28;20174;-77
2023/10/26 03:12:37;;;;;;;2.73;1.30;;;;;;;;;;4994345;28;20240;-77
2023/10/26 03:15:02;;;;;;;1.70;0.90;;;;;;;;;;5015600;28;20204;-77
2023/10/26 03:17:28;;;;;;;1.57;1.40;;;;;;;;;;5008811;28;20180;-77
2023/10/26 03:19:53;;;;;;;1.83;1.00;;;;;;;;;;4993771;28;20195;-77
2023/10/26 03:22:18;;;;;;;0.70;0.70;;;;;;;;;;4991281;28;20472;-77
2023/10/26 03:24:43;;;;;;;1.50;0.97;;;;;;;;;;5010286;28;20171;-77
2023/10/26 03:27:08;;;;;;;1.17;1.07;;;;;;;;;;5008777;28;20180;-77
2023/10/26 03:29:34;;;;;;;2.43;0.97;;;;;;;;;;4987043;28;20177;-77
2023/10/26 03:31:59;;;;;;;2.50;1.37;;;;;;;;;;4989443;28;20196;-77
2023/10/26 03:34:24;;;;;;;1.20;0.80;;;;;;;;;;4990126;28;20185;-77
2023/10/26 03:36:49;;;;;;;5.97;1.73;;;;;;;;;;4993025;28;20191;-76
2023/10/26 03:39:14;;;;;;;1.27;0.70;;;;;;;;;;4992994;28;20284;-77
2023/10/26 03:41:39;;;;;;;0.90;0.90;;;;;;;;;;5010879;28;20187;-77
2023/10/26 03:44:05;;;;;;;0.90;0.80;;;;;;;;;;4991658;28;20199;-77
2023/10/26 03:46:30;;;;;;;0.70;0.70;;;;;;;;;;4989831;28;20180;-77
2023/10/26 03:48:55;;;;;;;0.90;0.87;;;;;;;;;;4989087;28;20180;-77
2023/10/26 03:51:21;;;;;;;0.93;0.80;;;;;;;;;;4991553;28;20188;-77
2023/10/26 03:53:46;;;;;;;0.80;0.80;;;;;;;;;;4991458;28;20225;-77
2023/10/26 03:56:11;;;;;;;1.00;1.00;;;;;;;;;;4994505;28;20187;-77
2023/10/26 03:58:36;;;;;;;2.10;0.87;;;;;;;;;;5008971;28;20189;-77
2023/10/26 04:01:02;;;;;;;2.20;1.07;;;;;;;;;;4989742;28;20189;-77
2023/10/26 04:03:27;;;;;;;1.37;0.70;;;;;;;;;;5003614;28;20208;-76
2023/10/26 04:05:52;;;;;;;0.93;0.70;;;;;;;;;;4989668;28;20184;-77
2023/10/26 04:08:17;;;;;;;0.80;0.80;;;;;;;;;;4988539;28;20268;-77
2023/10/26 04:10:43;;;;;;;0.87;0.87;;;;;;;;;;5008532;28;20175;-77
2023/10/26 04:13:08;;;;;;;0.67;0.67;;;;;;;;;;5009214;28;20248;-77
2023/10/26 04:15:36;;;;;;;2.07;0.80;;;;;;;;;;4987427;28;20223;-77
2023/10/26 04:18:05;;;;;;;0.90;0.90;;;;;;;;;;4988780;28;20242;-77
2023/10/26 04:20:31;;;;;;;0.90;0.90;;;;;;;;;;5002017;28;20179;-77
2023/10/26 04:22:56;;;;;;;0.93;0.80;;;;;;;;;;4989712;28;20199;-77
2023/10/26 04:25:21;;;;;;;0.60;0.60;;;;;;;;;;5006415;28;20173;-77
2023/10/26 04:27:47;;;;;;;0.87;0.87;;;;;;;;;;5007247;28;20172;-77
2023/10/26 04:30:12;;;;;;;0.73;0.73;;;;;;;;;;4989418;28;20203;-77
2023/10/26 04:32:37;;;;;;;0.80;0.80;;;;;;;;;;4992189;28;20192;-77
2023/10/26 04:35:03;;;;;;;1.33;0.90;;;;;;;;;;4992265;28;20186;-77
2023/10/26 04:37:28;;;;;;;2.10;0.70;;;;;;;;;;4990129;28;20184;-77
2023/10/26 04:39:53;;;;;;;0.83;0.70;;;;;;;;;;4989636;28;20180;-77
2023/10/26 04:42:19;;;;;;;1.90;0.80;;;;;;;;;;4985189;28;20536;-77
2023/10/26 04:44:45;;;;;;;0.80;0.80;;;;;;;;;;4989425;28;20177;-76
2023/10/26 04:47:10;;;;;;;2.00;1.00;;;;;;;;;;5006704;28;20184;-77
2023/10/26 04:49:36;;;;;;;2.73;1.13;;;;;;;;;;4999707;28;20489;-77
2023/10/26 04:52:01;;;;;;;4.87;1.40;;;;;;;;;;4991007;28;20192;-77
2023/10/26 04:54:29;;;;;;;3.60;0.87;;;;;;;;;;4992490;28;20171;-77
2023/10/26 04:56:54;;;;;;;1.40;1.30;;;;;;;;;;5008960;28;20178;-77
2023/10/26 04:59:20;;;;;;;7.23;4.60;;;;;;;;;;5005603;28;20172;-75
2023/10/26 05:01:45;;;;;;;9.50;6.63;;;;;;;;;;4991288;28;20186;-74
2023/10/26 05:04:10;;;;;;;3.37;2.40;;;;;;;;;;4989347;28;20184;-76
2023/10/26 05:06:36;;;;;;;1.00;0.87;;;;;;;;;;4986951;28;20298;-77
2023/10/26 05:09:01;;;;;;;1.60;1.50;;;;;;;;;;4987575;28;20180;-77
2023/10/26 05:11:26;;;;;;;4.03;1.23;;;;;;;;;;5004662;28;20215;-77
2023/10/26 05:13:53;;;;;;;1.57;1.00;;;;;;;;;;5005945;28;20207;-77
2023/10/26 05:16:18;;;;;;;1.73;1.00;;;;;;;;;;4988057;28;20188;-77
2023/10/26 05:18:43;;;;;;;2.13;1.93;;;;;;;;;;5003577;28;20279;-76
2023/10/26 05:21:08;;;;;;;1.83;1.73;;;;;;;;;;4981211;28;20182;-76
2023/10/26 05:23:34;;;;;;;1.53;0.87;;;;;;;;;;5008284;28;20279;-77
2023/10/26 05:25:59;;;;;;;1.40;1.30;;;;;;;;;;4991302;28;20179;-77
2023/10/26 05:28:24;;;;;;;5.13;4.37;;;;;;;;;;5007483;28;20259;-76
2023/10/26 05:30:49;;;;;;;1.93;1.30;;;;;;;;;;4990662;28;20206;-77
2023/10/26 05:33:15;;;;;;;2.10;1.37;;;;;;;;;;4992316;28;20188;-77
2023/10/26 05:35:40;;;;;;;2.93;1.57;;;;;;;;;;4991983;28;20180;-77
2023/10/26 05:38:06;;;;;;;1.40;1.10;;;;;;;;;;4988694;28;20250;-76
2023/10/26 05:40:31;;;;;;;1.50;1.13;;;;;;;;;;4983759;28;20184;-77
2023/10/26 05:42:57;;;;;;;1.60;1.50;;;;;;;;;;5003970;28;20266;-77
2023/10/26 05:45:22;;;;;;;1.47;1.20;;;;;;;;;;4987303;28;20192;-75
2023/10/26 05:47:53;;;;;;;1.37;1.27;;;;;;;;;;4988065;28;20184;-75
2023/10/26 05:50:19;;;;;;;1.30;1.23;;;;;;;;;;5005504;28;20179;-75
2023/10/26 05:52:45;;;;;;;1.33;1.23;;;;;;;;;;4986890;28;20184;-77
2023/10/26 05:55:10;;;;;;;1.47;1.37;;;;;;;;;;4986505;28;20188;-77
2023/10/26 05:57:35;;;;;;;2.30;1.17;;;;;;;;;;4989485;28;20187;-77
2023/10/26 06:00:00;;;;;;;1.73;1.40;;;;;;;;;;5004414;28;20270;-77
2023/10/26 06:02:25;;;;;;;1.57;1.20;;;;;;;;;;4989045;28;20200;-77
2023/10/26 06:04:51;;;;;;;1.80;1.57;;;;;;;;;;4993146;28;20179;-77
2023/10/26 06:07:16;;;;;;;2.40;1.23;;;;;;;;;;5010513;28;20172;-77
2023/10/26 06:09:41;;;;;;;1.97;1.30;;;;;;;;;;4999215;28;20175;-77
2023/10/26 06:12:07;;;;;;;4.47;1.30;;;;;;;;;;5000047;28;20227;-77
2023/10/26 06:14:32;;;;;;;1.70;1.60;;;;;;;;;;4991921;28;20181;-77
2023/10/26 06:16:57;;;;;;;2.83;1.70;;;;;;;;;;5005330;28;20181;-77
2023/10/26 06:19:22;;;;;;;2.23;2.00;;;;;;;;;;5011752;28;20198;-77
2023/10/26 06:21:48;;;;;;;2.60;1.40;;;;;;;;;;4996324;28;20184;-77
2023/10/26 06:24:13;;;;;;;6.40;5.90;;;;;;;;;;4998841;28;20218;-77
2023/10/26 06:26:38;;;;;;;4.87;4.07;;;;;;;;;;4994164;28;20327;-77
2023/10/26 06:29:03;;;;;;;1.47;1.37;;;;;;;;;;5000243;28;20175;-84
2023/10/26 06:31:28;;;;;;;2.97;1.90;;;;;;;;;;4986518;28;20223;-84
2023/10/26 06:33:54;;;;;;;3.20;2.03;;;;;;;;;;4991207;28;20474;-84
2023/10/26 06:36:19;;;;;;;4.03;3.60;;;;;;;;;;4995052;28;20256;-82
2023/10/26 06:38:44;;;;;;;4.73;2.83;;;;;;;;;;4988031;28;20177;-84
2023/10/26 06:41:09;;;;;;;2.30;2.00;;;;;;;;;;4994185;28;20179;-85
2023/10/26 06:43:36;;;;;;;4.87;1.90;;;;;;;;;;4994734;28;20199;-84
2023/10/26 06:46:01;;;;;;;2.20;2.00;;;;;;;;;;4995288;28;20184;-84
2023/10/26 06:48:26;;;;;;;2.93;2.73;;;;;;;;;;4994558;28;20267;-85
2023/10/26 06:51:02;;;;;;;5.77;2.33;;;;;;;;;;4995147;28;20175;-85
2023/10/26 06:53:28;;;;;;;6.53;2.10;;;;;;;;;;4994774;28;20246;-85
2023/10/26 06:55:53;;;;;;;5.77;2.33;;;;;;;;;;4997263;28;20194;-85
2023/10/26 06:58:18;;;;;;;11.63;3.17;;;;;;;;;;4993641;28;20183;-85
2023/10/26 07:00:44;;;;;;;2.63;1.70;;;;;;;;;;5008179;28;20280;-86
2023/10/26 07:03:09;;;;;;;4.97;1.67;;;;;;;;;;4988797;28;20384;-86
2023/10/26 07:05:35;;;;;;;4.63;2.77;;;;;;;;;;5010979;28;20184;-85
2023/10/26 07:08:01;;;;;;;6.23;1.83;;;;;;;;;;4994450;28;20197;-86
2023/10/26 07:10:26;;;;;;;2.60;1.90;;;;;;;;;;5010070;28;20183;-85
2023/10/26 07:12:51;;;;;;;2.67;1.70;;;;;;;;;;4994885;28;20237;-85
2023/10/26 07:15:17;;;;;;;4.57;2.60;;;;;;;;;;4989282;28;20175;-86
2023/10/26 07:17:42;;;;;;;7.60;3.03;;;;;;;;;;4990632;28;20193;-85
2023/10/26 07:20:07;;;;;;;7.03;2.67;;;;;;;;;;4990317;28;20176;-86
2023/10/26 07:22:33;;;;;;;6.33;2.40;;;;;;;;;;4994448;28;20202;-85
2023/10/26 07:24:58;;;;;;;4.40;2.37;;;;;;;;;;4991227;28;20222;-86
2023/10/26 07:27:23;;;;;;;6.77;3.03;;;;;;;;;;4992321;28;20199;-86
2023/10/26 07:29:48;;;;;;;5.10;2.27;;;;;;;;;;5011143;28;20287;-86
2023/10/26 07:32:14;;;;;;;2.87;1.90;;;;;;;;;;4988687;28;20176;-87
2023/10/26 07:34:39;;;;;;;3.13;1.70;;;;;;;;;;5011966;28;20180;-85
2023/10/26 07:37:04;;;;;;;2.23;2.00;;;;;;;;;;4994236;28;20187;-85
2023/10/26 07:39:32;;;;;;;2.00;1.73;;;;;;;;;;5010642;28;20236;-85
2023/10/26 07:41:57;;;;;;;3.80;2.10;;;;;;;;;;4991000;28;20176;-86
2023/10/26 07:44:22;;;;;;;2.60;2.40;;;;;;;;;;5010675;28;20183;-85
2023/10/26 07:46:47;;;;;;;5.53;2.30;;;;;;;;;;4987339;28;20211;-87
2023/10/26 07:49:13;;;;;;;3.10;2.63;;;;;;;;;;4988852;28;20182;-86
2023/10/26 07:51:38;;;;;;;1.90;1.80;;;;;;;;;;4988862;28;20192;-87
2023/10/26 07:54:03;;;;;;;3.03;1.80;;;;;;;;;;4989880;28;20231;-87
2023/10/26 07:56:29;;;;;;;4.67;2.50;;;;;;;;;;4992379;28;20177;-86
2023/10/26 07:58:55;;;;;;;2.07;1.93;;;;;;;;;;4988758;28;20250;-87
2023/10/26 08:01:20;;;;;;;1.80;1.70;;;;;;;;;;4993191;28;20194;-87
2023/10/26 08:03:45;;;;;;;1.87;1.70;;;;;;;;;;4987090;28;20220;-86
2023/10/26 08:06:11;;;;;;;2.17;1.80;;;;;;;;;;5013496;28;20177;-87
2023/10/26 08:08:37;;;;;;;2.97;2.77;;;;;;;;;;4987794;28;20180;-87
2023/10/26 08:11:09;;;;;;;1.77;1.43;;;;;;;;;;4987027;28;20181;-87
2023/10/26 08:13:34;;;;;;;5.20;2.70;;;;;;;;;;4988479;28;20620;-86
2023/10/26 08:16:00;;;;;;;2.07;1.87;;;;;;;;;;4995132;28;20293;-87
2023/10/26 08:18:26;;;;;;;2.10;1.70;;;;;;;;;;5006534;28;20175;-87
2023/10/26 08:20:51;;;;;;;2.97;1.57;;;;;;;;;;5005405;28;20187;-87
2023/10/26 08:23:16;;;;;;;1.50;1.40;;;;;;;;;;4987371;28;20251;-87
2023/10/26 08:25:42;;;;;;;1.37;1.30;;;;;;;;;;4992257;28;20184;-87
2023/10/26 08:28:07;;;;;;;2.00;1.80;;;;;;;;;;4989329;28;20232;-87
2023/10/26 08:30:32;;;;;;;3.43;1.63;;;;;;;;;;4990493;28;20206;-87
2023/10/26 08:32:59;;;;;;;1.60;1.50;;;;;;;;;;4986604;28;20209;-87
2023/10/26 08:35:24;;;;;;;3.10;1.80;;;;;;;;;;4991953;28;20174;-87
2023/10/26 08:37:50;;;;;;;1.60;1.50;;;;;;;;;;4991392;28;20185;-87
2023/10/26 08:40:15;;;;;;;1.77;1.33;;;;;;;;;;4990690;28;20180;-87
2023/10/26 08:42:40;;;;;;;1.40;1.23;;;;;;;;;;4988208;28;20303;-88
2023/10/26 08:45:11;;;;;;;2.73;1.70;;;;;;;;;;5002638;28;20249;-85
2023/10/26 08:47:36;;;;;;;2.20;2.00;;;;;;;;;;5002576;28;20177;-84
2023/10/26 08:50:02;;;;;;;2.90;1.33;;;;;;;;;;4990382;28;20188;-84
2023/10/26 08:52:27;;;;;;;2.80;1.87;;;;;;;;;;4992625;28;20186;-83
2023/10/26 08:54:52;;;;;;;2.27;1.37;;;;;;;;;;4992892;28;20265;-83
2023/10/26 08:57:17;;;;;;;2.27;1.53;;;;;;;;;;4987005;28;20290;-83
2023/10/26 08:59:43;;;;;;;1.70;1.30;;;;;;;;;;4989675;28;20186;-85
2023/10/26 09:02:08;;;;;;;1.43;1.33;;;;;;;;;;4989011;28;20176;-85
2023/10/26 09:04:33;;;;;;;2.77;1.80;;;;;;;;;;4988459;28;20185;-84
2023/10/26 09:06:59;;;;;;;1.13;1.10;;;;;;;;;;4990671;28;20172;-84
2023/10/26 09:09:24;;;;;;;0.93;0.93;;;;;;;;;;5010002;28;20266;-83
2023/10/26 09:11:49;;;;;;;1.73;1.53;;;;;;;;;;5004132;28;20244;-84
2023/10/26 09:14:14;;;;;;;1.60;1.50;;;;;;;;;;5003653;28;20186;-84
2023/10/26 09:16:49;;;;;;;1.13;1.03;;;;;;;;;;4990211;28;20299;-84
2023/10/26 09:19:15;;;;;;;1.00;1.00;;;;;;;;;;4984667;28;20227;-85
2023/10/26 09:21:55;;;;;;;1.37;1.17;;;;;;;;;;4988899;28;20207;-83
2023/10/26 09:24:25;;;;;;;1.20;1.10;;;;;;;;;;4989412;28;20216;-84
2023/10/26 09:26:51;;;;;;;1.60;1.30;;;;;;;;;;4989722;28;20207;-83
2023/10/26 09:29:17;;;;;;;1.83;1.40;;;;;;;;;;4989468;28;20212;-84
2023/10/26 09:31:54;;;;;;;2.30;1.17;;;;;;;;;;5005575;28;20236;-83
2023/10/26 09:34:24;;;;;;;1.13;1.13;;;;;;;;;;4990307;28;20189;-82
2023/10/26 09:37:04;;;;;;;1.00;0.90;;;;;;;;;;5005941;28;20232;-82
2023/10/26 09:39:32;;;;;;;0.97;0.97;;;;;;;;;;5010882;28;20224;-82
2023/10/26 09:41:58;;;;;;;1.40;1.30;;;;;;;;;;4986382;28;20191;-83
2023/10/26 09:44:24;;;;;;;0.90;0.90;;;;;;;;;;4996222;28;20176;-84
2023/10/26 09:46:49;;;;;;;1.00;1.00;;;;;;;;;;4997812;28;20280;-86
2023/10/26 09:49:14;;;;;;;0.80;0.80;;;;;;;;;;4992885;28;20261;-84
2023/10/26 09:51:40;;;;;;;1.77;1.63;;;;;;;;;;4994213;28;20181;-86
2023/10/26 09:54:05;;;;;;;3.63;3.33;;;;;;;;;;4992397;28;20190;-84
2023/10/26 09:56:31;;;;;;;3.27;2.90;;;;;;;;;;5017226;28;20194;-82
2023/10/26 09:58:58;;;;;;;5.70;5.20;;;;;;;;;;4991725;28;20202;-85
2023/10/26 10:01:33;;;;;;;0.90;0.90;;;;;;;;;;4991235;28;20196;-84
2023/10/26 10:03:59;;;;;;;5.03;1.90;;;;;;;;;;5016448;28;20194;-85
2023/10/26 10:06:42;;;;;;;3.37;3.17;;;;;;;;;;4991146;28;20170;-84
2023/10/26 10:09:10;;;;;;;4.30;3.90;;;;;;;;;;4988873;28;20181;-86
2023/10/26 10:11:35;;;;;;;5.77;5.00;;;;;;;;;;4985549;28;20212;-84
2023/10/26 10:14:01;;;;;;;1.80;1.67;;;;;;;;;;4982336;28;20277;-84
2023/10/26 10:16:35;;;;;;;2.40;2.20;;;;;;;;;;5007898;28;20298;-85
2023/10/26 10:19:19;;;;;;;2.90;1.80;;;;;;;;;;4990043;28;20185;-86
2023/10/26 10:21:44;;;;;;;6.60;2.03;;;;;;;;;;4989203;28;20213;-85
2023/10/26 10:24:09;;;;;;;3.27;2.00;;;;;;;;;;4986363;28;20234;-85
2023/10/26 10:26:53;;;;;;;1.30;1.20;;;;;;;;;;4991313;28;20252;-84
2023/10/26 10:29:19;;;;;;;1.83;0.90;;;;;;;;;;4991708;28;20178;-84
2023/10/26 10:31:44;;;;;;;2.00;1.37;;;;;;;;;;4990676;28;20217;-85
2023/10/26 10:34:10;;;;;;;0.70;0.70;;;;;;;;;;4996211;28;20182;-85
2023/10/26 10:36:53;;;;;;;1.10;1.00;;;;;;;;;;4986499;28;20190;-84
2023/10/26 10:39:19;;;;;;;1.03;1.03;;;;;;;;;;5009526;28;20221;-86
2023/10/26 10:41:44;;;;;;;1.17;1.10;;;;;;;;;;4991264;28;20210;-84
2023/10/26 10:44:10;;;;;;;0.90;0.90;;;;;;;;;;4995541;28;20198;-85
2023/10/26 10:46:35;;;;;;;1.90;1.80;;;;;;;;;;4994152;28;20178;-85
2023/10/26 10:49:07;;;;;;;0.80;0.80;;;;;;;;;;4993915;28;20190;-86
2023/10/26 10:51:34;;;;;;;0.90;0.90;;;;;;;;;;4992586;28;20179;-85
2023/10/26 10:54:00;;;;;;;1.17;0.90;;;;;;;;;;5013324;28;20182;-87
2023/10/26 10:56:25;;;;;;;1.20;1.10;;;;;;;;;;5015109;28;20257;-84
2023/10/26 10:58:52;;;;;;;1.03;1.03;;;;;;;;;;4994709;28;20270;-83
2023/10/26 11:01:20;;;;;;;1.70;1.60;;;;;;;;;;4989746;28;20187;-82
2023/10/26 11:03:46;;;;;;;0.80;0.80;;;;;;;;;;4984742;28;20233;-85
2023/10/26 11:06:18;;;;;;;0.73;0.60;;;;;;;;;;4992532;28;20278;-84
2023/10/26 11:08:43;;;;;;;1.73;1.03;;;;;;;;;;5008924;28;20182;-84
2023/10/26 11:11:26;;;;;;;1.10;0.90;;;;;;;;;;5004728;28;20174;-85
2023/10/26 11:14:04;;;;;;;0.60;0.60;;;;;;;;;;4990091;28;20313;-82
2023/10/26 11:16:29;;;;;;;0.83;0.83;;;;;;;;;;4987627;28;20183;-82
2023/10/26 11:18:54;;;;;;;0.70;0.70;;;;;;;;;;4988963;28;20188;-82
2023/10/26 11:21:19;;;;;;;3.70;1.30;;;;;;;;;;4991948;28;20175;-82
2023/10/26 11:23:49;;;;;;;4.57;1.13;;;;;;;;;;4992749;28;20238;-83
2023/10/26 11:26:15;;;;;;;4.77;1.43;;;;;;;;;;5011615;28;20213;-83
2023/10/26 11:31:15;;;;;;;2.33;1.07;;;;;;;;;;4989232;28;20265;-83
2023/10/26 11:33:40;;;;;;;2.83;1.43;;;;;;;;;;4976035;28;20215;-84
2023/10/26 11:36:09;;;;;;;3.27;1.47;;;;;;;;;;4981764;28;20185;-84
2023/10/26 11:38:35;;;;;;;3.80;1.67;;;;;;;;;;4974297;28;20214;-85
2023/10/26 11:41:00;;;;;;;11.00;1.97;;;;;;;;;;4980273;28;20202;-85
2023/10/26 11:43:32;;;;;;;3.67;1.23;;;;;;;;;;4997525;28;20213;-84
2023/10/26 11:45:59;;;;;;;4.57;1.77;;;;;;;;;;4977825;28;20182;-85
2023/10/26 11:48:29;;;;;;;3.83;2.00;;;;;;;;;;4979744;28;20185;-85
2023/10/26 11:50:54;;;;;;;3.63;1.80;;;;;;;;;;4977690;28;20181;-85
2023/10/26 11:53:23;;;;;;;10.67;2.97;;;;;;;;;;5001867;28;20198;-86
2023/10/26 11:55:49;;;;;;;10.57;2.73;;;;;;;;;;4977283;28;20182;-85
2023/10/26 11:58:14;;;;;;;4.47;1.73;;;;;;;;;;4979194;28;20184;-86
2023/10/26 12:00:39;;;;;;;5.20;1.63;;;;;;;;;;4977664;28;20184;-85
2023/10/26 12:03:04;;;;;;;4.10;2.00;;;;;;;;;;4983311;28;20206;-85
2023/10/26 12:05:30;;;;;;;6.07;2.77;;;;;;;;;;4976855;28;20299;-86
2023/10/26 12:07:55;;;;;;;4.87;2.40;;;;;;;;;;4977293;28;20235;-86
2023/10/26 12:10:22;;;;;;;21.07;3.63;;;;;;;;;;4975023;28;20212;-86
2023/10/26 12:12:50;;;;;;;6.80;1.93;;;;;;;;;;4975725;28;20176;-87
2023/10/26 12:15:16;;;;;;;7.27;2.07;;;;;;;;;;4974225;28;20187;-86
2023/10/26 12:17:41;;;;;;;2.87;1.70;;;;;;;;;;4971106;28;20262;-86
2023/10/26 12:20:06;;;;;;;2.77;1.73;;;;;;;;;;4991448;28;20177;-86
2023/10/26 12:22:32;;;;;;;4.33;2.10;;;;;;;;;;4973796;28;20292;-85
2023/10/26 12:24:57;;;;;;;5.17;2.53;;;;;;;;;;4972526;28;20204;-86
2023/10/26 12:27:22;;;;;;;5.47;2.13;;;;;;;;;;4973244;28;20263;-86
2023/10/26 12:29:48;;;;;;;6.20;2.00;;;;;;;;;;4986570;28;20251;-86
2023/10/26 12:32:13;;;;;;;5.97;1.93;;;;;;;;;;4987609;28;20181;-86
2023/10/26 12:34:39;;;;;;;3.30;2.00;;;;;;;;;;4995294;28;20183;-87
2023/10/26 12:37:05;;;;;;;3.43;1.53;;;;;;;;;;4994084;28;20180;-86
2023/10/26 12:39:30;;;;;;;5.60;1.93;;;;;;;;;;5008564;28;20173;-86
2023/10/26 12:41:55;;;;;;;6.27;2.17;;;;;;;;;;4985797;28;20250;-84
2023/10/26 12:44:21;;;;;;;4.80;2.10;;;;;;;;;;4989769;28;20231;-83
2023/10/26 12:46:50;;;;;;;8.33;2.47;;;;;;;;;;4990168;28;20186;-84
2023/10/26 12:49:15;;;;;;;7.33;2.60;;;;;;;;;;4990645;28;20180;-83
2023/10/26 12:51:40;;;;;;;6.83;2.00;;;;;;;;;;4991926;28;20252;-84
2023/10/26 12:54:07;;;;;;;4.67;1.67;;;;;;;;;;4993798;28;20179;-84
2023/10/26 12:56:32;;;;;;;3.03;1.87;;;;;;;;;;4994622;28;20189;-84
2023/10/26 12:58:57;;;;;;;5.00;1.63;;;;;;;;;;4989106;28;20270;-84
2023/10/26 13:01:22;;;;;;;5.20;2.60;;;;;;;;;;4993765;28;20182;-84
2023/10/26 13:03:48;;;;;;;3.27;2.17;;;;;;;;;;4985260;28;20198;-84
2023/10/26 13:06:13;;;;;;;2.67;1.50;;;;;;;;;;4983885;28;20172;-84
2023/10/26 13:08:38;;;;;;;6.57;2.20;;;;;;;;;;4988486;28;20222;-84
2023/10/26 13:11:03;;;;;;;3.80;1.97;;;;;;;;;;4985421;28;20278;-83
2023/10/26 13:13:28;;;;;;;7.23;2.20;;;;;;;;;;4992303;28;20183;-85
2023/10/26 13:15:54;;;;;;;5.37;2.10;;;;;;;;;;4987796;28;20244;-85
2023/10/26 13:18:19;;;;;;;3.13;1.80;;;;;;;;;;4986443;28;20225;-85
2023/10/26 13:20:44;;;;;;;5.13;1.90;;;;;;;;;;4986009;28;20291;-84
2023/10/26 13:23:09;;;;;;;3.37;1.60;;;;;;;;;;4989623;28;20220;-85
2023/10/26 13:25:34;;;;;;;7.57;3.30;;;;;;;;;;4984576;28;20187;-83
2023/10/26 13:28:01;;;;;;;7.53;3.33;;;;;;;;;;4992583;28;20196;-84
2023/10/26 13:30:26;;;;;;;5.13;1.60;;;;;;;;;;4983612;28;20230;-83
2023/10/26 13:32:52;;;;;;;5.37;2.20;;;;;;;;;;4990039;28;20182;-84
2023/10/26 13:35:17;;;;;;;4.67;1.80;;;;;;;;;;4987989;28;20195;-83
2023/10/26 13:37:42;;;;;;;5.57;3.63;;;;;;;;;;4981202;28;20183;-84
2023/10/26 13:40:08;;;;;;;3.57;2.07;;;;;;;;;;5006729;28;20186;-84
2023/10/26 13:42:34;;;;;;;4.20;2.43;;;;;;;;;;4985201;28;20271;-84
2023/10/26 13:44:59;;;;;;;4.10;2.20;;;;;;;;;;4983603;28;20224;-84
2023/10/26 13:47:24;;;;;;;5.07;1.80;;;;;;;;;;5002033;28;20175;-84
2023/10/26 13:49:49;;;;;;;6.27;2.13;;;;;;;;;;4986055;28;20189;-85
2023/10/26 13:52:15;;;;;;;5.47;2.17;;;;;;;;;;5005860;28;20175;-85
2023/10/26 13:54:41;;;;;;;7.03;2.77;;;;;;;;;;5006620;28;20191;-84
2023/10/26 13:57:06;;;;;;;4.53;2.00;;;;;;;;;;4985965;28;20176;-84
2023/10/26 13:59:31;;;;;;;7.37;2.30;;;;;;;;;;5006026;28;20190;-84
2023/10/26 14:01:57;;;;;;;5.57;2.10;;;;;;;;;;4992006;28;20187;-84
2023/10/26 14:04:22;;;;;;;10.93;3.50;;;;;;;;;;4987627;28;20199;-87
2023/10/26 14:06:48;;;;;;;11.23;3.20;;;;;;;;;;4991597;28;20183;-84
2023/10/26 14:09:13;;;;;;;6.67;2.50;;;;;;;;;;4992015;28;20177;-84
2023/10/26 14:11:38;;;;;;;5.03;2.43;;;;;;;;;;4987502;28;20274;-84
2023/10/26 14:14:04;;;;;;;4.90;1.93;;;;;;;;;;4990067;28;20212;-84
2023/10/26 14:16:29;;;;;;;5.37;2.43;;;;;;;;;;4990030;28;20188;-85
2023/10/26 14:18:54;;;;;;;5.73;2.37;;;;;;;;;;4989489;28;20249;-85
2023/10/26 14:21:19;;;;;;;5.50;2.00;;;;;;;;;;4983303;28;20255;-84
2023/10/26 14:23:44;;;;;;;6.77;2.50;;;;;;;;;;4991122;28;20308;-84
2023/10/26 14:26:10;;;;;;;6.87;1.90;;;;;;;;;;4986661;28;20193;-85
2023/10/26 14:28:37;;;;;;;4.97;2.40;;;;;;;;;;4992874;28;20304;-85
2023/10/26 14:31:02;;;;;;;2.33;2.03;;;;;;;;;;5012897;28;20255;-84
2023/10/26 14:33:27;;;;;;;4.13;2.10;;;;;;;;;;4997152;28;20193;-85
2023/10/26 14:35:53;;;;;;;3.13;1.90;;;;;;;;;;5010935;28;20181;-84
2023/10/26 14:38:19;;;;;;;6.10;2.60;;;;;;;;;;4994844;28;20273;-85